createdAt,value
2023-11-18T00:00:19.931Z,2.60
2023-11-18T00:02:50.831Z,2.60
2023-11-18T00:05:27.720Z,2.60
2023-11-18T00:07:56.586Z,2.60
2023-11-18T00:10:25.250Z,2.60
2023-11-18T00:13:05.452Z,2.50
2023-11-18T00:15:35.873Z,2.50
2023-11-18T00:18:08.969Z,2.50
2023-11-18T00:20:48.536Z,2.60
2023-11-18T00:23:31.874Z,2.60
2023-11-18T00:26:12.133Z,2.50
2023-11-18T00:28:44.006Z,2.50
2023-11-18T00:31:27.533Z,2.50
2023-11-18T00:33:57.672Z,2.50
2023-11-18T00:36:29.679Z,2.50
2023-11-18T00:39:05.678Z,2.60
2023-11-18T00:41:36.111Z,2.50
2023-11-18T00:44:05.041Z,2.50
2023-11-18T00:46:45.975Z,2.50
2023-11-18T00:49:38.854Z,2.50
2023-11-18T00:52:21.413Z,2.40
2023-11-18T00:54:58.022Z,2.40
2023-11-18T00:57:27.293Z,2.40
2023-11-18T01:02:58.750Z,2.40
2023-11-18T01:05:54.161Z,2.40
2023-11-18T01:11:23.559Z,2.40
2023-11-18T01:14:07.958Z,2.30
2023-11-18T01:17:05.499Z,2.40
2023-11-18T01:19:51.378Z,2.40
2023-11-18T01:22:39.388Z,2.40
2023-11-18T01:25:23.792Z,2.40
2023-11-18T01:28:01.272Z,2.40
2023-11-18T01:30:30.089Z,2.40
2023-11-18T01:33:02.399Z,2.40
2023-11-18T01:35:38.638Z,2.40
2023-11-18T01:38:54.185Z,2.40
2023-11-18T01:41:45.833Z,2.40
2023-11-18T01:44:30.014Z,2.40
2023-11-18T01:47:45.358Z,2.30
2023-11-18T01:50:22.417Z,2.30
2023-11-18T01:53:04.500Z,2.30
2023-11-18T01:59:28.812Z,2.30
2023-11-18T02:02:01.101Z,2.30
2023-11-18T02:04:42.043Z,2.30
2023-11-18T02:07:23.542Z,2.30
2023-11-18T02:09:52.760Z,2.30
2023-11-18T02:12:28.177Z,2.30
2023-11-18T02:15:01.370Z,2.30
2023-11-18T02:17:31.073Z,2.30
2023-11-18T02:20:01.046Z,2.30
2023-11-18T02:22:34.649Z,2.20
2023-11-18T02:25:11.549Z,2.30
2023-11-18T02:27:47.631Z,2.30
2023-11-18T02:30:35.969Z,2.30
2023-11-18T02:33:21.534Z,2.30
2023-11-18T02:35:54.327Z,2.30
2023-11-18T02:38:39.624Z,2.30
2023-11-18T02:41:19.842Z,2.30
2023-11-18T02:47:02.135Z,2.20
2023-11-18T02:50:01.030Z,2.20
2023-11-18T02:52:32.451Z,2.20
2023-11-18T02:55:01.034Z,2.20
2023-11-18T02:57:31.707Z,2.20
2023-11-18T03:00:08.376Z,2.10
2023-11-18T03:05:28.356Z,2.10
2023-11-18T03:08:15.872Z,2.10
2023-11-18T03:13:49.669Z,2.10
2023-11-18T03:16:33.497Z,2.10
2023-11-18T03:19:16.531Z,2.10
2023-11-18T03:21:53.351Z,2.10
2023-11-18T03:24:56.283Z,2.10
2023-11-18T03:27:46.547Z,2.10
2023-11-18T03:30:18.377Z,2.10
2023-11-18T03:33:01.788Z,2.10
2023-11-18T03:35:38.967Z,2.10
2023-11-18T03:38:12.540Z,2.10
2023-11-18T03:40:58.235Z,2.10
2023-11-18T03:43:50.264Z,2.10
2023-11-18T03:46:38.980Z,2.10
2023-11-18T03:49:22.231Z,2.10
2023-11-18T03:51:53.209Z,2.10
2023-11-18T03:54:24.904Z,2.00
2023-11-18T03:59:58.867Z,1.90
2023-11-18T04:02:41.251Z,1.90
2023-11-18T04:05:16.628Z,2.00
2023-11-18T04:08:08.632Z,1.90
2023-11-18T04:10:38.712Z,1.90
2023-11-18T04:13:11.689Z,1.90
2023-11-18T04:15:40.617Z,1.90
2023-11-18T04:18:11.921Z,1.90
2023-11-18T04:20:42.025Z,1.90
2023-11-18T04:23:15.562Z,1.90
2023-11-18T04:25:47.167Z,1.90
2023-11-18T04:28:15.634Z,1.90
2023-11-18T04:31:04.317Z,2.00
2023-11-18T04:33:46.051Z,2.00
2023-11-18T04:36:56.252Z,2.00
2023-11-18T04:39:31.624Z,2.00
2023-11-18T04:42:00.076Z,2.00
2023-11-18T04:44:35.932Z,2.00
2023-11-18T04:47:10.153Z,2.00
2023-11-18T04:49:38.967Z,2.00
2023-11-18T04:52:08.983Z,2.00
2023-11-18T04:54:37.785Z,2.00
2023-11-18T04:57:11.400Z,2.00
2023-11-18T04:59:40.292Z,2.00
2023-11-18T05:02:14.127Z,2.00
2023-11-18T05:04:47.055Z,1.90
2023-11-18T05:07:28.606Z,1.90
2023-11-18T05:10:11.713Z,1.90
2023-11-18T05:12:40.981Z,1.90
2023-11-18T05:15:10.178Z,1.90
2023-11-18T05:17:47.588Z,1.90
2023-11-18T05:20:21.788Z,1.90
2023-11-18T05:22:51.734Z,1.90
2023-11-18T05:25:20.509Z,1.90
2023-11-18T05:30:52.716Z,1.90
2023-11-18T05:33:31.329Z,1.90
2023-11-18T05:36:03.171Z,1.90
2023-11-18T05:38:57.008Z,1.90
2023-11-18T05:41:43.757Z,1.90
2023-11-18T05:44:27.914Z,1.90
2023-11-18T05:46:57.571Z,1.90
2023-11-18T05:49:26.584Z,1.90
2023-11-18T05:52:04.017Z,1.90
2023-11-18T05:54:33.830Z,1.90
2023-11-18T05:57:34.537Z,1.90
2023-11-18T06:00:33.164Z,1.90
2023-11-18T06:03:05.125Z,1.90
2023-11-18T06:05:42.093Z,1.90
2023-11-18T06:08:16.722Z,2.00
2023-11-18T06:11:16.164Z,2.00
2023-11-18T06:13:54.471Z,2.00
2023-11-18T06:16:25.514Z,2.00
2023-11-18T06:19:25.335Z,2.00
2023-11-18T06:22:14.261Z,2.00
2023-11-18T06:25:03.763Z,2.00
2023-11-18T06:27:36.993Z,2.00
2023-11-18T06:30:27.499Z,2.00
2023-11-18T06:33:05.248Z,2.00
2023-11-18T06:35:36.372Z,2.00
2023-11-18T06:38:05.195Z,2.10
2023-11-18T06:40:34.052Z,2.10
2023-11-18T06:43:18.620Z,2.10
2023-11-18T06:45:56.374Z,2.10
2023-11-18T06:48:32.665Z,2.10
2023-11-18T06:51:33.552Z,2.10
2023-11-18T06:54:10.118Z,2.10
2023-11-18T06:56:49.196Z,2.10
2023-11-18T06:59:19.772Z,2.10
2023-11-18T07:01:48.358Z,2.10
2023-11-18T07:04:17.119Z,2.10
2023-11-18T07:06:46.361Z,2.10
2023-11-18T07:09:22.288Z,2.20
2023-11-18T07:11:53.176Z,2.20
2023-11-18T07:14:27.218Z,2.20
2023-11-18T07:16:55.803Z,2.20
2023-11-18T07:19:27.409Z,2.20
2023-11-18T07:22:01.780Z,2.20
2023-11-18T07:24:31.437Z,2.30
2023-11-18T07:27:06.741Z,2.40
2023-11-18T07:29:49.672Z,2.30
2023-11-18T07:32:21.238Z,2.30
2023-11-18T07:34:50.078Z,2.30
2023-11-18T07:37:22.112Z,2.30
2023-11-18T07:39:56.821Z,2.30
2023-11-18T07:42:27.128Z,2.40
2023-11-18T07:44:58.283Z,2.40
2023-11-18T07:47:32.638Z,2.40
2023-11-18T07:50:05.759Z,2.40
2023-11-18T07:52:34.800Z,2.40
2023-11-18T07:55:05.159Z,2.40
2023-11-18T07:57:37.304Z,2.30
2023-11-18T08:00:10.408Z,2.40
2023-11-18T08:02:39.510Z,2.40
2023-11-18T08:05:10.235Z,2.40
2023-11-18T08:07:40.588Z,2.40
2023-11-18T08:10:20.631Z,2.40
2023-11-18T08:12:55.377Z,2.40
2023-11-18T08:15:27.969Z,2.40
2023-11-18T08:17:56.401Z,2.50
2023-11-18T08:20:26.586Z,2.50
2023-11-18T08:22:56.510Z,2.60
2023-11-18T08:25:25.224Z,2.60
2023-11-18T08:27:55.842Z,2.70
2023-11-18T08:30:25.962Z,2.80
2023-11-18T08:33:05.490Z,2.80
2023-11-18T08:35:47.570Z,2.80
2023-11-18T08:38:16.510Z,2.80
2023-11-18T08:40:46.294Z,2.70
2023-11-18T08:43:22.475Z,2.70
2023-11-18T08:45:57.426Z,2.70
2023-11-18T08:48:25.976Z,2.80
2023-11-18T08:51:16.956Z,2.80
2023-11-18T08:54:21.850Z,2.90
2023-11-18T08:57:27.784Z,2.90
2023-11-18T09:00:44.309Z,3.00
2023-11-18T09:03:19.253Z,3.10
2023-11-18T09:06:01.114Z,3.10
2023-11-18T09:08:44.983Z,3.20
2023-11-18T09:11:34.364Z,3.30
2023-11-18T09:14:12.821Z,3.40
2023-11-18T09:17:29.315Z,3.40
2023-11-18T09:20:55.324Z,3.50
2023-11-18T09:23:29.494Z,3.50
2023-11-18T09:26:14.274Z,3.60
2023-11-18T09:28:51.090Z,3.60
2023-11-18T09:31:56.242Z,3.70
2023-11-18T09:34:45.228Z,3.70
2023-11-18T09:37:16.347Z,3.70
2023-11-18T09:39:56.604Z,3.80
2023-11-18T09:42:29.426Z,3.80
2023-11-18T09:45:03.497Z,3.80
2023-11-18T09:47:33.767Z,3.90
2023-11-18T09:50:15.473Z,3.90
2023-11-18T09:52:53.451Z,4.00
2023-11-18T09:55:33.204Z,3.90
2023-11-18T09:58:10.203Z,3.90
2023-11-18T10:00:42.982Z,4.00
2023-11-18T10:03:17.003Z,4.10
2023-11-18T10:05:46.796Z,4.10
2023-11-18T10:08:17.637Z,4.10
2023-11-18T10:10:48.176Z,4.10
2023-11-18T10:13:24.063Z,4.20
2023-11-18T10:15:58.825Z,4.20
2023-11-18T10:18:29.825Z,4.20
2023-11-18T10:21:23.730Z,4.20
2023-11-18T10:24:03.495Z,4.10
2023-11-18T10:26:33.426Z,4.10
2023-11-18T10:29:09.367Z,4.20
2023-11-18T10:31:38.927Z,4.20
2023-11-18T10:34:08.602Z,4.20
2023-11-18T10:36:37.678Z,4.20
2023-11-18T10:39:17.353Z,4.20
2023-11-18T10:41:49.065Z,4.20
2023-11-18T10:44:27.165Z,4.20
2023-11-18T10:47:02.799Z,4.20
2023-11-18T10:49:38.429Z,4.20
2023-11-18T10:52:10.105Z,4.30
2023-11-18T10:54:55.608Z,4.40
2023-11-18T10:57:24.731Z,4.50
2023-11-18T11:00:14.793Z,4.50
2023-11-18T11:02:43.929Z,4.40
2023-11-18T11:05:20.960Z,4.40
2023-11-18T11:07:51.576Z,4.50
2023-11-18T11:10:29.670Z,4.50
2023-11-18T11:13:03.481Z,4.60
2023-11-18T11:15:45.057Z,4.70
2023-11-18T11:18:31.356Z,4.70
2023-11-18T11:21:17.311Z,4.60
2023-11-18T11:23:56.927Z,4.70
2023-11-18T11:26:45.400Z,4.60
2023-11-18T11:29:29.844Z,4.50
2023-11-18T11:32:13.789Z,4.50
2023-11-18T11:34:46.753Z,4.40
2023-11-18T11:37:18.170Z,4.20
2023-11-18T11:39:48.368Z,4.10
2023-11-18T11:42:22.236Z,4.10
2023-11-18T11:44:54.457Z,4.10
2023-11-18T11:47:24.540Z,4.20
2023-11-18T11:50:02.238Z,4.10
2023-11-18T11:52:38.911Z,4.10
2023-11-18T11:55:13.994Z,4.20
2023-11-18T11:57:45.985Z,4.20
2023-11-18T12:00:18.465Z,4.10
2023-11-18T12:02:56.866Z,4.00
2023-11-18T12:05:30.410Z,3.80
2023-11-18T12:08:05.872Z,3.40
2023-11-18T12:11:02.347Z,3.10
2023-11-18T12:13:40.667Z,2.90
2023-11-18T12:16:11.741Z,2.80
2023-11-18T12:18:40.878Z,2.80
2023-11-18T12:21:24.525Z,2.70
2023-11-18T12:24:23.779Z,2.80
2023-11-18T12:38:08.101Z,2.80
2023-11-18T12:40:57.424Z,3.10
2023-11-18T12:43:54.020Z,3.20
2023-11-18T12:46:57.809Z,3.20
2023-11-18T12:49:29.325Z,3.20
2023-11-18T12:51:58.623Z,3.40
2023-11-18T12:54:29.684Z,3.40
2023-11-18T12:56:58.706Z,3.50
2023-11-18T12:59:27.266Z,3.60
2023-11-18T13:01:58.750Z,3.70
2023-11-18T13:04:28.842Z,3.90
2023-11-18T13:06:59.487Z,4.00
2023-11-18T13:09:33.684Z,4.00
2023-11-18T13:12:05.610Z,4.00
2023-11-18T13:14:37.876Z,4.10
2023-11-18T13:17:07.927Z,4.20
2023-11-18T13:19:36.694Z,4.20
2023-11-18T13:22:09.150Z,4.20
2023-11-18T13:24:45.301Z,4.20
2023-11-18T13:27:17.731Z,4.20
2023-11-18T13:29:50.201Z,4.30
2023-11-18T13:32:19.487Z,4.30
2023-11-18T13:34:48.241Z,4.30
2023-11-18T13:37:18.351Z,4.20
2023-11-18T13:39:50.656Z,4.10
2023-11-18T13:42:24.019Z,4.00
2023-11-18T13:44:54.284Z,3.90
2023-11-18T13:47:24.274Z,3.90
2023-11-18T13:49:53.643Z,3.80
2023-11-18T13:52:22.492Z,3.70
2023-11-18T13:54:56.957Z,3.70
2023-11-18T13:57:26.426Z,3.70
2023-11-18T13:59:55.749Z,3.70
2023-11-18T14:02:24.987Z,3.70
2023-11-18T14:04:56.878Z,3.70
2023-11-18T14:07:26.186Z,3.70
2023-11-18T14:09:58.028Z,3.60
2023-11-18T14:12:28.932Z,3.60
2023-11-18T14:14:57.596Z,3.50
2023-11-18T14:17:26.908Z,3.30
2023-11-18T14:19:55.400Z,3.20
2023-11-18T14:22:24.625Z,3.10
2023-11-18T14:24:53.098Z,2.90
2023-11-18T14:27:22.922Z,2.80
2023-11-18T14:29:51.329Z,2.70
2023-11-18T14:32:20.354Z,2.60
2023-11-18T14:34:50.307Z,2.50
2023-11-18T14:37:20.433Z,2.40
2023-11-18T14:39:49.209Z,2.20
2023-11-18T14:42:17.703Z,2.10
2023-11-18T14:44:47.513Z,2.00
2023-11-18T14:47:15.980Z,1.90
2023-11-18T14:49:44.764Z,1.90
2023-11-18T14:52:13.165Z,1.80
2023-11-18T14:54:42.219Z,1.80
2023-11-18T14:57:10.594Z,1.70
2023-11-18T14:59:39.124Z,1.70
2023-11-18T15:02:09.565Z,1.60
2023-11-18T15:04:38.141Z,1.50
2023-11-18T15:07:06.992Z,1.50
2023-11-18T15:09:36.408Z,1.40
2023-11-18T15:12:05.167Z,1.30
2023-11-18T15:14:33.880Z,1.30
2023-11-18T15:17:02.924Z,1.30
2023-11-18T15:19:37.210Z,1.20
2023-11-18T15:22:06.028Z,1.20
2023-11-18T15:24:34.797Z,1.10
2023-11-18T15:27:06.966Z,1.10
2023-11-18T15:29:50.738Z,1.10
2023-11-18T15:32:19.576Z,1.00
2023-11-18T15:34:50.379Z,1.00
2023-11-18T15:37:18.782Z,1.00
2023-11-18T15:39:47.288Z,1.00
2023-11-18T15:42:15.761Z,1.00
2023-11-18T15:44:44.930Z,1.00
2023-11-18T15:47:14.987Z,1.00
2023-11-18T15:49:43.939Z,1.00
2023-11-18T15:55:26.850Z,1.00
2023-11-18T15:57:56.230Z,1.00
2023-11-18T16:00:31.158Z,0.90
2023-11-18T16:03:06.070Z,0.80
2023-11-18T16:05:36.092Z,0.80
2023-11-18T16:08:11.555Z,0.70
2023-11-18T16:10:40.080Z,0.60
2023-11-18T16:13:08.912Z,0.60
2023-11-18T16:15:51.729Z,0.50
2023-11-18T16:18:27.117Z,0.40
2023-11-18T16:21:23.267Z,0.30
2023-11-18T16:24:17.957Z,0.20
2023-11-18T16:26:49.986Z,0.20
2023-11-18T16:32:11.104Z,0.00
2023-11-18T16:34:42.495Z,-0.10
2023-11-18T16:37:16.436Z,-0.20
2023-11-18T16:46:35.702Z,-0.50
2023-11-18T16:49:34.845Z,-0.50
2023-11-18T16:52:12.845Z,-0.60
2023-11-18T16:55:09.901Z,-0.70
2023-11-18T16:57:40.807Z,-0.70
2023-11-18T17:00:17.597Z,-0.70
2023-11-18T17:03:13.648Z,-0.70
2023-11-18T17:06:19.677Z,-0.80
2023-11-18T17:09:09.426Z,-0.90
2023-11-18T17:12:06.251Z,-0.90
2023-11-18T17:15:04.983Z,-1.00
2023-11-18T17:27:51.210Z,-0.90
2023-11-18T17:30:59.972Z,-0.70
2023-11-18T17:37:52.987Z,-0.10
2023-11-18T17:41:01.842Z,0.10
2023-11-18T17:44:25.188Z,0.30
2023-11-18T17:50:38.226Z,0.60
2023-11-18T17:53:58.438Z,0.60
2023-11-18T17:57:25.545Z,0.50
2023-11-18T18:01:29.634Z,0.40
2023-11-18T18:04:26.872Z,0.50
2023-11-18T18:08:01.824Z,0.50
2023-11-18T18:17:52.744Z,0.50
2023-11-18T18:20:25.751Z,0.40
2023-11-18T18:23:12.368Z,0.30
2023-11-18T18:25:41.240Z,0.20
2023-11-18T18:28:17.559Z,0.10
2023-11-18T18:31:00.479Z,0.10
2023-11-18T18:34:10.119Z,0.10
2023-11-18T18:36:54.013Z,0.10
2023-11-18T18:39:28.932Z,0.10
2023-11-18T18:42:07.768Z,0.10
2023-11-18T18:44:45.119Z,0.00
2023-11-18T18:47:21.779Z,0.00
2023-11-18T18:53:32.115Z,-0.10
2023-11-18T18:56:19.540Z,0.00
2023-11-18T18:58:57.737Z,0.10
2023-11-18T19:01:27.827Z,0.10
2023-11-18T19:03:58.631Z,0.20
2023-11-18T19:06:32.170Z,0.30
2023-11-18T19:09:03.174Z,0.40
2023-11-18T19:11:39.613Z,0.50
2023-11-18T19:14:25.648Z,0.60
2023-11-18T19:16:58.605Z,0.70
2023-11-18T19:19:36.277Z,0.80
2023-11-18T19:22:07.500Z,0.80
2023-11-18T19:24:59.075Z,0.80
2023-11-18T19:27:27.963Z,0.80
2023-11-18T19:30:13.530Z,1.00
2023-11-18T19:32:45.531Z,0.80
2023-11-18T19:35:15.826Z,0.80
2023-11-18T19:37:45.411Z,0.80
2023-11-18T19:40:16.269Z,0.80
2023-11-18T19:42:54.378Z,0.80
2023-11-18T19:45:28.619Z,0.70
2023-11-18T19:48:00.153Z,0.70
2023-11-18T19:50:28.969Z,0.70
2023-11-18T19:56:02.563Z,0.80
2023-11-18T19:58:31.353Z,0.80
2023-11-18T20:01:00.652Z,0.90
2023-11-18T20:03:35.465Z,0.90
2023-11-18T20:06:04.078Z,1.00
2023-11-18T20:08:32.677Z,1.00
2023-11-18T20:11:04.484Z,1.00
2023-11-18T20:13:56.667Z,1.00
2023-11-18T20:16:27.632Z,1.00
2023-11-18T20:18:59.648Z,1.00
2023-11-18T20:21:28.400Z,1.00
2023-11-18T20:23:57.108Z,1.10
2023-11-18T20:26:27.002Z,1.00
2023-11-18T20:28:55.904Z,1.00
2023-11-18T20:31:26.472Z,1.10
2023-11-18T20:33:54.988Z,1.10
2023-11-18T20:36:23.809Z,1.00
2023-11-18T20:38:52.687Z,1.10
2023-11-18T20:41:21.609Z,1.10
2023-11-18T20:44:11.925Z,1.20
2023-11-18T20:46:40.871Z,1.30
2023-11-18T20:49:09.439Z,1.30
2023-11-18T20:51:38.452Z,1.30
2023-11-18T20:54:09.782Z,1.30
2023-11-18T20:56:38.578Z,1.30
2023-11-18T20:59:07.412Z,1.30
2023-11-18T21:01:37.655Z,1.40
2023-11-18T21:04:07.082Z,1.30
2023-11-18T21:06:36.575Z,1.30
2023-11-18T21:09:05.448Z,1.30
2023-11-18T21:11:34.002Z,1.30
2023-11-18T21:14:04.521Z,1.30
2023-11-18T21:16:34.053Z,1.30
2023-11-18T21:19:04.822Z,1.30
2023-11-18T21:21:33.355Z,1.30
2023-11-18T21:24:04.340Z,1.30
2023-11-18T21:26:36.399Z,1.20
2023-11-18T21:29:15.535Z,1.30
2023-11-18T21:32:18.210Z,1.30
2023-11-18T21:35:00.501Z,1.30
2023-11-18T21:37:49.164Z,1.30
2023-11-18T21:40:25.978Z,1.40
2023-11-18T21:43:03.019Z,1.40
2023-11-18T21:45:40.785Z,1.40
2023-11-18T21:48:27.196Z,1.40
2023-11-18T21:51:17.742Z,1.40
2023-11-18T21:53:47.313Z,1.40
2023-11-18T21:56:17.611Z,1.40
2023-11-18T21:59:04.714Z,1.50
2023-11-18T22:01:40.600Z,1.50
2023-11-18T22:04:27.202Z,1.50
2023-11-18T22:06:57.467Z,1.60
2023-11-18T22:09:33.733Z,1.50
2023-11-18T22:12:13.975Z,1.60
2023-11-18T22:14:45.565Z,1.60
2023-11-18T22:17:21.693Z,1.60
2023-11-18T22:19:51.122Z,1.70
2023-11-18T22:22:43.974Z,1.60
2023-11-18T22:25:22.271Z,1.70
2023-11-18T22:31:13.761Z,1.80
2023-11-18T22:37:38.095Z,1.80
2023-11-18T22:40:20.103Z,1.70
2023-11-18T22:42:54.958Z,1.80
2023-11-18T22:45:31.436Z,1.70
2023-11-18T22:48:10.554Z,1.70
2023-11-18T22:50:42.473Z,1.70
2023-11-18T22:53:43.643Z,1.70
2023-11-18T22:56:23.933Z,1.70
2023-11-18T22:59:03.792Z,1.70
2023-11-18T23:01:32.698Z,1.70
2023-11-18T23:07:03.552Z,1.70
2023-11-18T23:09:55.293Z,1.80
2023-11-18T23:12:42.854Z,1.80
2023-11-18T23:16:31.721Z,1.90
2023-11-18T23:19:04.538Z,1.90
2023-11-18T23:21:49.398Z,1.80
2023-11-18T23:24:26.991Z,1.80
2023-11-18T23:27:41.498Z,1.80
2023-11-18T23:31:09.094Z,1.80
2023-11-18T23:37:40.334Z,1.90
2023-11-18T23:40:30.553Z,1.90
2023-11-18T23:43:03.701Z,1.90
2023-11-18T23:45:47.806Z,1.80
2023-11-18T23:48:27.043Z,1.90
2023-11-18T23:50:58.532Z,1.90
2023-11-18T23:53:36.720Z,1.90
2023-11-18T23:56:16.449Z,2.10
2023-11-18T23:58:52.699Z,2.10
